Time;durP1;ratioP1;P1;durP2;ratioP2;P2;SDS_P1;SDS_P2;PMS_P1;PMS_P2;Temp;Humidity;BMP_temperature;BMP_pressure;BME280_temperature;BME280_humidity;BME280_pressure;Samples;Min_cycle;Max_cycle;Signal;HPM_P1;HPM_P2
2021/04/02 00:01:06;;;;;;;;;;;;;;;4.33;100.00;101400.94;5051058;28;19925;-64
2021/04/02 00:03:33;;;;;;;;;;;;;;;4.36;100.00;101399.94;5050858;28;19924;-62
2021/04/02 00:06:00;;;;;;;;;;;;;;;4.36;100.00;101399.94;5050547;28;19924;-63
2021/04/02 00:08:26;;;;;;;;;;;;;;;4.39;100.00;101399.78;5051032;28;20400;-62
2021/04/02 00:10:53;;;;;;;;;;;;;;;4.37;100.00;101401.69;5050930;28;19932;-64
2021/04/02 00:13:20;;;;;;;;;;;;;;;4.31;100.00;101394.72;5051214;28;20396;-64
2021/04/02 00:15:47;;;;;;;;;;;;;;;4.23;100.00;101391.53;5054661;28;20135;-64
2021/04/02 00:18:13;;;;;;;;;;;;;;;4.22;100.00;101400.50;5037073;28;19925;-64
2021/04/02 00:20:39;;;;;;;;;;;;;;;4.26;100.00;101404.84;5055177;28;19979;-64
2021/04/02 00:23:05;;;;;;;;;;;;;;;4.19;100.00;101397.97;5055242;28;19924;-64
2021/04/02 00:25:31;;;;;;;;;;;;;;;4.16;100.00;101396.28;5054915;28;20023;-64
2021/04/02 00:27:58;;;;;;;;;;;;;;;4.12;100.00;101397.38;5054885;28;19931;-63
2021/04/02 00:30:27;;;;;;;;;;;;;;;4.13;100.00;101399.13;5054992;28;19935;-63
2021/04/02 00:32:52;;;;;;;;;;;;;;;4.07;100.00;101398.50;5054993;28;20396;-63
2021/04/02 00:35:18;;;;;;;;;;;;;;;4.02;100.00;101407.66;5054783;28;19925;-64
2021/04/02 00:37:44;;;;;;;;;;;;;;;4.00;100.00;101409.50;5054772;28;19924;-63
2021/04/02 00:40:12;;;;;;;;;;;;;;;3.97;100.00;101406.09;5055591;28;19935;-64
2021/04/02 00:42:38;;;;;;;;;;;;;;;3.96;100.00;101402.53;5054836;28;20387;-64
2021/04/02 00:45:06;;;;;;;;;;;;;;;3.93;100.00;101413.41;5054746;28;19932;-62
2021/04/02 00:47:31;;;;;;;;;;;;;;;3.89;100.00;101410.91;5054369;28;19925;-62
2021/04/02 00:49:57;;;;;;;;;;;;;;;3.91;100.00;101409.03;5054554;28;19940;-64
2021/04/02 00:52:23;;;;;;;;;;;;;;;3.93;100.00;101409.84;5054676;28;20434;-64
2021/04/02 00:54:49;;;;;;;;;;;;;;;3.85;100.00;101407.50;5054699;28;19937;-64
2021/04/02 00:57:15;;;;;;;;;;;;;;;3.84;100.00;101417.34;5036305;28;19936;-64
2021/04/02 00:59:41;;;;;;;;;;;;;;;3.72;100.00;101415.19;5054474;28;19991;-64
2021/04/02 01:02:08;;;;;;;;;;;;;;;3.62;100.00;101411.13;5036369;28;19925;-64
2021/04/02 01:04:35;;;;;;;;;;;;;;;3.45;100.00;101415.38;5036364;28;19947;-64
2021/04/02 01:07:01;;;;;;;;;;;;;;;3.24;100.00;101411.75;5036280;28;19968;-63
2021/04/02 01:09:27;;;;;;;;;;;;;;;3.10;100.00;101416.78;5053983;28;19924;-63
2021/04/02 01:11:53;;;;;;;;;;;;;;;2.95;100.00;101424.50;5054329;28;19978;-64
2021/04/02 01:14:19;;;;;;;;;;;;;;;2.84;100.00;101422.19;5054215;28;19975;-63
2021/04/02 01:16:46;;;;;;;;;;;;;;;2.77;100.00;101425.19;5036153;28;20253;-63
2021/04/02 01:19:16;;;;;;;;;;;;;;;2.68;100.00;101431.75;5054258;28;19925;-63
2021/04/02 01:21:46;;;;;;;;;;;;;;;2.61;100.00;101430.25;5053765;28;20410;-62
2021/04/02 01:24:30;;;;;;;;;;;;;;;2.60;100.00;101433.84;5036391;28;19957;-64
2021/04/02 01:27:06;;;;;;;;;;;;;;;2.58;100.00;101430.34;5034720;28;19948;-62
2021/04/02 01:29:39;;;;;;;;;;;;;;;2.53;100.00;101425.16;5053788;28;20023;-64
2021/04/02 01:32:08;;;;;;;;;;;;;;;2.44;100.00;101429.03;5053790;28;19978;-64
2021/04/02 01:34:36;;;;;;;;;;;;;;;2.34;100.00;101424.97;5019453;28;19931;-64
2021/04/02 01:37:03;;;;;;;;;;;;;;;2.28;100.00;101427.84;5053351;28;19993;-64
2021/04/02 01:39:30;;;;;;;;;;;;;;;2.20;100.00;101428.09;5053778;28;20362;-64
2021/04/02 01:41:57;;;;;;;;;;;;;;;2.11;100.00;101432.00;5035915;28;19964;-64
2021/04/02 01:44:24;;;;;;;;;;;;;;;2.02;100.00;101432.31;5035890;28;19935;-64
2021/04/02 01:46:53;;;;;;;;;;;;;;;1.92;100.00;101425.50;5053508;28;19944;-64
2021/04/02 01:49:19;;;;;;;;;;;;;;;1.84;100.00;101428.44;5035750;28;19925;-63
2021/04/02 01:51:46;;;;;;;;;;;;;;;1.74;100.00;101425.22;5035702;28;19977;-63
2021/04/02 01:54:13;;;;;;;;;;;;;;;1.65;100.00;101434.41;5053482;28;20384;-63
2021/04/02 01:56:40;;;;;;;;;;;;;;;1.59;100.00;101423.03;5034982;28;19924;-63
2021/04/02 01:59:08;;;;;;;;;;;;;;;1.53;100.00;101433.94;5035562;28;20391;-63
2021/04/02 02:01:36;;;;;;;;;;;;;;;1.44;100.00;101427.97;5035225;28;19963;-63
2021/04/02 02:04:06;;;;;;;;;;;;;;;1.37;100.00;101434.41;5035585;28;19925;-63
2021/04/02 02:06:34;;;;;;;;;;;;;;;1.32;100.00;101431.91;5052736;28;20245;-64
2021/04/02 02:09:14;;;;;;;;;;;;;;;1.29;100.00;101434.66;5018781;28;19951;-63
2021/04/02 02:11:41;;;;;;;;;;;;;;;1.29;100.00;101441.81;5035344;28;19928;-63
2021/04/02 02:14:09;;;;;;;;;;;;;;;1.26;100.00;101436.56;5035357;28;19935;-64
2021/04/02 02:16:41;;;;;;;;;;;;;;;1.26;100.00;101436.56;5034828;28;19925;-63
2021/04/02 02:19:10;;;;;;;;;;;;;;;1.24;100.00;101441.94;5018400;28;20312;-64
2021/04/02 02:21:39;;;;;;;;;;;;;;;1.23;100.00;101436.66;5035118;28;20403;-64
2021/04/02 02:24:05;;;;;;;;;;;;;;;1.20;100.00;101442.97;5035277;28;20012;-64
2021/04/02 02:26:31;;;;;;;;;;;;;;;1.21;100.00;101443.84;5052424;28;19925;-64
2021/04/02 02:28:57;;;;;;;;;;;;;;;1.17;100.00;101440.38;5035021;28;19925;-64
2021/04/02 02:31:28;;;;;;;;;;;;;;;1.13;100.00;101442.28;5052511;28;19968;-64
2021/04/02 02:33:55;;;;;;;;;;;;;;;1.07;100.00;101439.81;5034992;28;19924;-64
2021/04/02 02:36:40;;;;;;;;;;;;;;;1.03;100.00;101443.50;5034399;28;19928;-64
2021/04/02 02:39:07;;;;;;;;;;;;;;;1.02;100.00;101443.50;5034930;28;19924;-64
2021/04/02 02:41:34;;;;;;;;;;;;;;;1.01;100.00;101442.66;5034555;28;19924;-64
2021/04/02 02:44:02;;;;;;;;;;;;;;;0.97;100.00;101447.22;5052436;28;19924;-63
2021/04/02 02:46:28;;;;;;;;;;;;;;;0.96;100.00;101439.22;5034288;28;19925;-63
2021/04/02 02:49:02;;;;;;;;;;;;;;;0.93;100.00;101439.34;5034486;28;19925;-64
2021/04/02 02:51:30;;;;;;;;;;;;;;;0.89;100.00;101443.03;5034631;28;19936;-64
2021/04/02 02:53:59;;;;;;;;;;;;;;;0.82;100.00;101447.66;5034387;28;20384;-63
2021/04/02 02:56:26;;;;;;;;;;;;;;;0.75;100.00;101441.63;5034075;28;19924;-64
2021/04/02 02:58:53;;;;;;;;;;;;;;;0.72;100.00;101441.72;5052120;28;19967;-64
2021/04/02 03:01:20;;;;;;;;;;;;;;;0.65;100.00;101440.13;5034361;28;20319;-64
2021/04/02 03:03:48;;;;;;;;;;;;;;;0.63;100.00;101436.66;5034327;28;19928;-64
2021/04/02 03:06:17;;;;;;;;;;;;;;;0.57;100.00;101436.81;5051724;28;20376;-64
2021/04/02 03:08:45;;;;;;;;;;;;;;;0.52;100.00;101439.59;5033631;28;19928;-63
2021/04/02 03:11:15;;;;;;;;;;;;;;;0.46;100.00;101439.78;5051959;28;20307;-64
2021/04/02 03:13:42;;;;;;;;;;;;;;;0.38;100.00;101439.13;5051921;28;19935;-64
2021/04/02 03:16:11;;;;;;;;;;;;;;;0.30;100.00;101429.50;5034028;28;20315;-64
2021/04/02 03:18:41;;;;;;;;;;;;;;;0.23;100.00;101433.28;5033731;28;19986;-64
2021/04/02 03:21:10;;;;;;;;;;;;;;;0.16;100.00;101432.56;5034146;28;19971;-64
2021/04/02 03:23:37;;;;;;;;;;;;;;;0.11;100.00;101429.13;5033878;28;19947;-64
2021/04/02 03:26:03;;;;;;;;;;;;;;;0.05;100.00;101434.63;5051907;28;20339;-64
2021/04/02 03:28:31;;;;;;;;;;;;;;;-0.02;100.00;101422.34;5051566;28;19925;-64
2021/04/02 03:30:58;;;;;;;;;;;;;;;-0.08;100.00;101428.75;5034037;28;19925;-64
2021/04/02 03:33:34;;;;;;;;;;;;;;;-0.19;100.00;101430.78;5051661;28;19975;-63
2021/04/02 03:36:13;;;;;;;;;;;;;;;-0.26;100.00;101423.88;5033621;28;20304;-63
2021/04/02 03:38:43;;;;;;;;;;;;;;;-0.36;100.00;101420.53;5033767;28;20013;-63
2021/04/02 03:41:12;;;;;;;;;;;;;;;-0.42;100.00;101416.22;5033671;28;20462;-63
2021/04/02 03:43:43;;;;;;;;;;;;;;;-0.49;100.00;101414.63;5033756;28;20441;-63
2021/04/02 03:46:10;;;;;;;;;;;;;;;-0.57;100.00;101413.94;5033376;28;19928;-63
2021/04/02 03:48:40;;;;;;;;;;;;;;;-0.61;100.00;101422.94;5032894;28;19925;-63
2021/04/02 03:51:09;;;;;;;;;;;;;;;-0.64;100.00;101407.88;5051567;28;20001;-63
2021/04/02 03:53:38;;;;;;;;;;;;;;;-0.66;100.00;101411.50;5033762;28;19948;-63
2021/04/02 03:56:06;;;;;;;;;;;;;;;-0.72;100.00;101417.81;5051326;28;19971;-65
2021/04/02 03:58:39;;;;;;;;;;;;;;;-0.78;100.00;101416.19;5050868;28;19963;-65
2021/04/02 04:01:08;;;;;;;;;;;;;;;-0.79;100.00;101414.41;5051146;28;19925;-65
2021/04/02 04:03:35;;;;;;;;;;;;;;;-0.79;100.00;101413.56;5050905;28;19925;-65
2021/04/02 04:06:03;;;;;;;;;;;;;;;-0.71;100.00;101416.91;5049039;28;19924;-65
2021/04/02 04:08:30;;;;;;;;;;;;;;;-0.63;100.00;101419.41;5028978;28;19979;-65
2021/04/02 04:11:00;;;;;;;;;;;;;;;-0.60;100.00;101414.91;5012955;28;19979;-65
2021/04/02 04:13:29;;;;;;;;;;;;;;;-0.56;100.00;101416.56;5015632;28;19976;-65
2021/04/02 04:15:57;;;;;;;;;;;;;;;-0.53;100.00;101411.16;5033268;28;19931;-65
2021/04/02 04:18:26;;;;;;;;;;;;;;;-0.52;100.00;101414.72;5031659;28;19925;-65
2021/04/02 04:20:54;;;;;;;;;;;;;;;-0.57;100.00;101409.47;5031199;28;19933;-64
2021/04/02 04:23:21;;;;;;;;;;;;;;;-0.66;100.00;101411.50;5032499;28;19926;-65
2021/04/02 04:25:48;;;;;;;;;;;;;;;-0.75;100.00;101404.56;5050684;28;19958;-65
2021/04/02 04:28:15;;;;;;;;;;;;;;;-0.83;100.00;101402.06;5032744;28;19925;-65
2021/04/02 04:30:41;;;;;;;;;;;;;;;-0.91;100.00;101404.94;5030921;28;19929;-65
2021/04/02 04:33:08;;;;;;;;;;;;;;;-0.95;100.00;101402.38;5039646;28;19982;-65
2021/04/02 04:35:35;;;;;;;;;;;;;;;-1.03;100.00;101403.44;5043293;28;19932;-65
2021/04/02 04:38:03;;;;;;;;;;;;;;;-1.04;100.00;101401.66;5050963;28;19924;-64
2021/04/02 04:40:31;;;;;;;;;;;;;;;-1.06;100.00;101389.28;5031825;28;19933;-65
2021/04/02 04:42:58;;;;;;;;;;;;;;;-1.15;100.00;101385.03;5050207;28;20254;-64
2021/04/02 04:45:24;;;;;;;;;;;;;;;-1.20;100.00;101395.78;5049774;28;19932;-64
2021/04/02 04:47:50;;;;;;;;;;;;;;;-1.25;100.00;101395.00;5050575;28;20332;-65
2021/04/02 04:50:16;;;;;;;;;;;;;;;-1.24;100.00;101391.44;5046487;28;19995;-66
2021/04/02 04:52:47;;;;;;;;;;;;;;;-1.24;100.00;101395.91;5050329;28;19929;-65
2021/04/02 04:55:13;;;;;;;;;;;;;;;-1.25;100.00;101400.34;5049741;28;19943;-65
2021/04/02 04:57:41;;;;;;;;;;;;;;;-1.24;100.00;101402.09;5050583;28;19945;-65
2021/04/02 05:00:08;;;;;;;;;;;;;;;-1.20;100.00;101403.78;5045076;28;20467;-65
2021/04/02 05:02:35;;;;;;;;;;;;;;;-1.15;100.00;101410.81;5054285;28;19940;-65
2021/04/02 05:05:02;;;;;;;;;;;;;;;-1.09;100.00;101411.53;5035830;28;19964;-65
2021/04/02 05:07:28;;;;;;;;;;;;;;;-1.00;100.00;101415.81;5053253;28;20394;-65
2021/04/02 05:09:56;;;;;;;;;;;;;;;-0.88;100.00;101412.88;5015668;28;19925;-65
2021/04/02 05:12:22;;;;;;;;;;;;;;;-0.71;100.00;101415.16;5034341;28;19925;-65
2021/04/02 05:14:49;;;;;;;;;;;;;;;-0.59;100.00;101413.09;5046045;28;19929;-65
2021/04/02 05:17:15;;;;;;;;;;;;;;;-0.51;100.00;101422.69;5054104;28;19954;-65
2021/04/02 05:19:42;;;;;;;;;;;;;;;-0.43;100.00;101417.13;5042739;28;19929;-65
2021/04/02 05:22:09;;;;;;;;;;;;;;;-0.30;100.00;101417.72;5014944;28;19956;-65
2021/04/02 05:24:35;;;;;;;;;;;;;;;-0.20;100.00;101419.25;5041824;28;19932;-65
2021/04/02 05:27:01;;;;;;;;;;;;;;;-0.14;100.00;101418.22;5034540;28;20019;-65
2021/04/02 05:29:27;;;;;;;;;;;;;;;-0.06;100.00;101412.69;5042417;28;19925;-65
2021/04/02 05:31:53;;;;;;;;;;;;;;;0.10;100.00;101419.34;5053493;28;20017;-65
2021/04/02 05:34:19;;;;;;;;;;;;;;;0.21;100.00;101427.09;5046039;28;19932;-65
2021/04/02 05:36:45;;;;;;;;;;;;;;;0.25;100.00;101430.56;5033203;28;19929;-65
2021/04/02 05:39:11;;;;;;;;;;;;;;;0.16;100.00;101432.56;5032625;28;19932;-65
2021/04/02 05:41:40;;;;;;;;;;;;;;;0.20;100.00;101437.81;5053762;28;20380;-64
2021/04/02 05:44:10;;;;;;;;;;;;;;;0.29;100.00;101440.22;5052046;28;20404;-65
2021/04/02 05:46:37;;;;;;;;;;;;;;;0.40;100.00;101445.28;5053449;28;19925;-65
2021/04/02 05:49:04;;;;;;;;;;;;;;;0.24;100.00;101450.16;5021013;28;19925;-65
2021/04/02 05:51:30;;;;;;;;;;;;;;;0.37;100.00;101453.38;5033713;28;19925;-65
2021/04/02 05:53:57;;;;;;;;;;;;;;;0.50;100.00;101453.00;5047695;28;20035;-65
2021/04/02 05:56:23;;;;;;;;;;;;;;;0.60;100.00;101450.06;5028663;28;19944;-65
2021/04/02 05:58:50;;;;;;;;;;;;;;;0.59;100.00;101451.88;5033316;28;20249;-67
2021/04/02 06:01:16;;;;;;;;;;;;;;;0.68;100.00;101456.06;5033480;28;19947;-65
2021/04/02 06:03:42;;;;;;;;;;;;;;;0.84;100.00;101448.50;5032353;28;19975;-67
2021/04/02 06:06:12;;;;;;;;;;;;;;;0.96;100.00;101444.59;5050925;28;20299;-65
2021/04/02 06:08:39;;;;;;;;;;;;;;;1.07;100.00;101439.81;5052543;28;19968;-65
2021/04/02 06:11:05;;;;;;;;;;;;;;;1.12;100.00;101451.25;5052358;28;20014;-65
2021/04/02 06:13:30;;;;;;;;;;;;;;;1.17;100.00;101437.72;5033425;28;20011;-65
2021/04/02 06:15:56;;;;;;;;;;;;;;;1.32;100.00;101441.72;5047528;28;19933;-65
2021/04/02 06:18:24;;;;;;;;;;;;;;;1.33;100.00;101443.47;5033366;28;19961;-65
2021/04/02 06:20:51;;;;;;;;;;;;;;;1.45;100.00;101434.19;5016739;28;19940;-65
2021/04/02 06:23:19;;;;;;;;;;;;;;;1.64;100.00;101438.03;5052965;28;20344;-64
2021/04/02 06:25:48;;;;;;;;;;;;;;;1.75;100.00;101428.75;5051169;28;19935;-65
2021/04/02 06:28:17;;;;;;;;;;;;;;;1.79;100.00;101419.69;5032875;28;20035;-65
2021/04/02 06:30:43;;;;;;;;;;;;;;;1.86;100.00;101421.25;5048523;28;19993;-65
2021/04/02 06:33:10;;;;;;;;;;;;;;;2.03;100.00;101411.75;5049148;28;19928;-65
2021/04/02 06:35:40;;;;;;;;;;;;;;;2.17;100.00;101417.50;5052577;28;19925;-65
2021/04/02 06:38:06;;;;;;;;;;;;;;;2.27;100.00;101423.41;5036862;28;19929;-65
2021/04/02 06:40:32;;;;;;;;;;;;;;;2.26;100.00;101418.97;5074246;28;19931;-65
2021/04/02 06:42:58;;;;;;;;;;;;;;;2.25;100.00;101418.09;5074993;28;19978;-64
2021/04/02 06:45:24;;;;;;;;;;;;;;;2.32;100.00;101426.81;5038768;28;19928;-67
2021/04/02 06:47:50;;;;;;;;;;;;;;;2.41;100.00;101431.84;5053516;28;19931;-65
2021/04/02 06:50:18;;;;;;;;;;;;;;;2.56;100.00;101425.03;5039865;28;19925;-67
2021/04/02 06:52:47;;;;;;;;;;;;;;;2.65;100.00;101426.53;5041090;28;19925;-66
2021/04/02 06:55:13;;;;;;;;;;;;;;;2.71;100.00;101417.38;5056009;28;19929;-66
2021/04/02 06:57:41;;;;;;;;;;;;;;;2.69;100.00;101412.06;5030339;28;19928;-70
2021/04/02 07:00:08;;;;;;;;;;;;;;;2.61;100.00;101406.13;5054498;28;19928;-66
2021/04/02 07:02:35;;;;;;;;;;;;;;;2.80;100.00;101415.19;5046029;28;20315;-65
2021/04/02 07:05:01;;;;;;;;;;;;;;;2.91;100.00;101421.97;5049842;28;19936;-65
2021/04/02 07:07:28;;;;;;;;;;;;;;;3.02;100.00;101425.13;5052048;28;19971;-65
2021/04/02 07:09:55;;;;;;;;;;;;;;;2.79;100.00;101424.22;5051224;28;19925;-66
2021/04/02 07:12:21;;;;;;;;;;;;;;;2.79;100.00;101426.00;5052347;28;19947;-65
2021/04/02 07:14:47;;;;;;;;;;;;;;;2.97;100.00;101429.81;5038752;28;20387;-65
2021/04/02 07:17:13;;;;;;;;;;;;;;;3.06;100.00;101421.41;5044888;28;19940;-65
2021/04/02 07:19:40;;;;;;;;;;;;;;;3.25;100.00;101426.06;5048253;28;19929;-65
2021/04/02 07:22:06;;;;;;;;;;;;;;;3.46;100.00;101429.66;5046059;28;19936;-65
2021/04/02 07:24:34;;;;;;;;;;;;;;;3.55;100.00;101425.75;5044562;28;19931;-65
2021/04/02 07:27:00;;;;;;;;;;;;;;;3.54;100.00;101424.00;5044205;28;19929;-65
2021/04/02 07:29:27;;;;;;;;;;;;;;;3.61;100.00;101420.13;5048569;28;19955;-65
2021/04/02 07:31:53;;;;;;;;;;;;;;;3.66;100.00;101419.00;5038426;28;20345;-65
2021/04/02 07:34:19;;;;;;;;;;;;;;;3.82;100.00;101412.97;5039591;28;20285;-65
2021/04/02 07:36:46;;;;;;;;;;;;;;;3.78;100.00;101414.94;5045009;28;19951;-64
2021/04/02 07:39:12;;;;;;;;;;;;;;;3.98;100.00;101414.09;5043408;28;20330;-64
2021/04/02 07:41:38;;;;;;;;;;;;;;;4.04;100.00;101420.16;5033120;28;20137;-65
2021/04/02 07:44:07;;;;;;;;;;;;;;;3.98;100.00;101410.53;5047165;28;20342;-71
2021/04/02 07:46:33;;;;;;;;;;;;;;;4.08;100.00;101414.56;5045719;28;19940;-71
2021/04/02 07:49:00;;;;;;;;;;;;;;;4.14;100.00;101410.72;5049969;28;19979;-71
2021/04/02 07:51:39;;;;;;;;;;;;;;;4.45;100.00;101415.66;5047554;28;19928;-71
2021/04/02 07:54:12;;;;;;;;;;;;;;;4.58;100.00;101409.72;5049283;28;19924;-65
2021/04/02 07:56:38;;;;;;;;;;;;;;;4.50;100.00;101407.38;5049271;28;19936;-65
2021/04/02 07:59:04;;;;;;;;;;;;;;;4.59;100.00;101414.16;5049757;28;19924;-73
2021/04/02 08:01:33;;;;;;;;;;;;;;;4.71;100.00;101410.91;5046076;28;19929;-64
2021/04/02 08:04:01;;;;;;;;;;;;;;;4.96;100.00;101415.16;5050396;28;19979;-72
2021/04/02 08:06:30;;;;;;;;;;;;;;;5.07;100.00;101406.59;5050011;28;20304;-64
2021/04/02 08:08:57;;;;;;;;;;;;;;;5.33;100.00;101408.00;5049903;28;20054;-65
2021/04/02 08:11:25;;;;;;;;;;;;;;;5.26;100.00;101411.94;5050793;28;19925;-65
2021/04/02 08:13:53;;;;;;;;;;;;;;;5.68;100.00;101408.13;5050456;28;19928;-65
2021/04/02 08:16:26;;;;;;;;;;;;;;;6.29;100.00;101398.72;5049540;28;19939;-65
2021/04/02 08:19:00;;;;;;;;;;;;;;;6.38;100.00;101400.06;5050587;28;19932;-72
2021/04/02 08:21:26;;;;;;;;;;;;;;;6.69;100.00;101401.13;5047956;28;19959;-72
2021/04/02 08:23:53;;;;;;;;;;;;;;;7.04;100.00;101406.41;5050863;28;19932;-71
2021/04/02 08:26:19;;;;;;;;;;;;;;;7.06;100.00;101393.72;5049594;28;20051;-71
2021/04/02 08:28:45;;;;;;;;;;;;;;;7.55;100.00;101400.84;5032845;28;19979;-71
2021/04/02 08:31:11;;;;;;;;;;;;;;;7.80;100.00;101389.50;5043118;28;19974;-71
2021/04/02 08:33:37;;;;;;;;;;;;;;;8.35;100.00;101384.41;5049793;28;19924;-72
2021/04/02 08:36:04;;;;;;;;;;;;;;;8.92;100.00;101380.03;5055283;28;20300;-73
2021/04/02 08:38:30;;;;;;;;;;;;;;;8.89;100.00;101372.97;5037226;28;19924;-72
2021/04/02 08:41:11;;;;;;;;;;;;;;;8.78;100.00;101380.88;5054942;28;19925;-72
2021/04/02 08:43:40;;;;;;;;;;;;;;;9.64;100.00;101366.31;5054567;28;19952;-71
2021/04/02 08:46:05;;;;;;;;;;;;;;;10.25;100.00;101365.78;5054462;28;20379;-71
2021/04/02 08:48:31;;;;;;;;;;;;;;;10.31;100.00;101358.06;5054912;28;19992;-71
2021/04/02 08:50:57;;;;;;;;;;;;;;;11.23;100.00;101347.03;5054924;28;20403;-71
2021/04/02 08:53:24;;;;;;;;;;;;;;;11.26;100.00;101337.78;5036745;28;20252;-71
2021/04/02 08:55:50;;;;;;;;;;;;;;;11.56;100.00;101327.31;5054325;28;19925;-71
2021/04/02 08:58:16;;;;;;;;;;;;;;;12.27;100.00;101323.72;5054239;28;20027;-72
2021/04/02 09:00:42;;;;;;;;;;;;;;;12.58;99.36;101336.75;5054632;28;20426;-71
2021/04/02 09:03:08;;;;;;;;;;;;;;;12.71;91.79;101337.50;5054466;28;19931;-71
2021/04/02 09:05:34;;;;;;;;;;;;;;;12.77;89.39;101344.31;5052127;28;19925;-73
2021/04/02 09:08:00;;;;;;;;;;;;;;;12.88;88.47;101339.72;5052144;28;19964;-73
2021/04/02 09:10:27;;;;;;;;;;;;;;;12.82;89.77;101340.22;5053467;28;20311;-72
2021/04/02 09:12:54;;;;;;;;;;;;;;;12.49;91.48;101322.91;5054153;28;19925;-72
2021/04/02 09:15:21;;;;;;;;;;;;;;;12.67;88.94;101325.13;5035471;28;20303;-71
2021/04/02 09:17:47;;;;;;;;;;;;;;;12.66;87.18;101328.84;5054020;28;20002;-71
2021/04/02 09:20:14;;;;;;;;;;;;;;;12.71;85.83;101321.16;5036382;28;19924;-71
2021/04/02 09:22:42;;;;;;;;;;;;;;;12.25;84.59;101316.66;5035935;28;19967;-72
2021/04/02 09:25:08;;;;;;;;;;;;;;;11.65;89.70;101311.25;5053211;28;19925;-73
2021/04/02 09:27:38;;;;;;;;;;;;;;;12.37;85.85;101304.81;5053952;28;19970;-73
2021/04/02 09:30:06;;;;;;;;;;;;;;;11.13;88.91;101295.22;5036204;28;20336;-72
2021/04/02 09:32:32;;;;;;;;;;;;;;;10.82;93.50;101296.59;5053846;28;19943;-73
2021/04/02 09:34:58;;;;;;;;;;;;;;;11.29;92.73;101299.47;5052703;28;19948;-73
2021/04/02 09:37:25;;;;;;;;;;;;;;;12.27;82.13;101287.50;5053602;28;20308;-72
2021/04/02 09:39:51;;;;;;;;;;;;;;;13.11;75.53;101274.28;5052264;28;20473;-72
2021/04/02 09:42:17;;;;;;;;;;;;;;;13.37;72.90;101274.00;5052630;28;19925;-74
2021/04/02 09:44:47;;;;;;;;;;;;;;;13.80;71.74;101272.19;5053503;28;19979;-72
2021/04/02 09:47:13;;;;;;;;;;;;;;;14.58;61.56;101264.44;5032566;28;20008;-71
2021/04/02 09:49:40;;;;;;;;;;;;;;;13.11;65.36;101266.13;5045244;28;20027;-71
2021/04/02 09:52:07;;;;;;;;;;;;;;;12.36;73.38;101273.16;5050604;28;19976;-71
2021/04/02 09:54:33;;;;;;;;;;;;;;;11.53;75.40;101269.56;5035580;28;19955;-71
2021/04/02 09:57:01;;;;;;;;;;;;;;;11.51;79.37;101264.25;5048428;28;19986;-73
2021/04/02 09:59:27;;;;;;;;;;;;;;;11.32;83.69;101264.81;5033356;28;19947;-72
2021/04/02 10:01:54;;;;;;;;;;;;;;;11.94;78.45;101251.03;5052280;28;20426;-72
2021/04/02 10:04:20;;;;;;;;;;;;;;;12.83;71.67;101249.34;5051274;28;19928;-73
2021/04/02 10:06:46;;;;;;;;;;;;;;;13.77;65.60;101245.19;5033427;28;19929;-72
2021/04/02 10:09:13;;;;;;;;;;;;;;;13.96;61.33;101236.25;5045413;28;20003;-74
2021/04/02 10:11:42;;;;;;;;;;;;;;;13.97;63.88;101232.53;5052347;28;19925;-74
2021/04/02 10:14:08;;;;;;;;;;;;;;;14.57;55.57;101225.31;5042425;28;19933;-74
2021/04/02 10:16:34;;;;;;;;;;;;;;;14.12;53.73;101228.41;5051478;28;19947;-73
2021/04/02 10:19:02;;;;;;;;;;;;;;;14.56;52.63;101220.00;5053085;28;20415;-74
2021/04/02 10:21:28;;;;;;;;;;;;;;;14.15;50.59;101219.97;5052672;28;19983;-73
2021/04/02 10:23:54;;;;;;;;;;;;;;;15.05;49.72;101217.41;5052874;28;20383;-74
2021/04/02 10:26:21;;;;;;;;;;;;;;;14.40;50.38;101215.94;5052654;28;20061;-74
2021/04/02 10:28:47;;;;;;;;;;;;;;;14.68;50.53;101216.16;5052837;28;20407;-74
2021/04/02 10:31:13;;;;;;;;;;;;;;;14.58;48.67;101220.72;5053141;28;19924;-72
2021/04/02 10:33:39;;;;;;;;;;;;;;;14.75;48.86;101215.63;5052569;28;19944;-73
2021/04/02 10:36:07;;;;;;;;;;;;;;;14.85;47.22;101211.03;5034736;28;19970;-74
2021/04/02 10:38:33;;;;;;;;;;;;;;;13.27;50.21;101202.09;5052991;28;19959;-73
2021/04/02 10:40:59;;;;;;;;;;;;;;;12.39;52.57;101219.28;5052761;28;19929;-73
2021/04/02 10:43:25;;;;;;;;;;;;;;;13.12;52.86;101212.47;5052583;28;20031;-73
2021/04/02 10:45:51;;;;;;;;;;;;;;;13.85;52.51;101208.00;5052197;28;19939;-74
2021/04/02 10:48:17;;;;;;;;;;;;;;;13.65;53.15;101204.31;5053087;28;20295;-73
2021/04/02 10:50:44;;;;;;;;;;;;;;;14.54;50.98;101200.16;5052665;28;19964;-73
2021/04/02 10:53:11;;;;;;;;;;;;;;;15.06;49.33;101191.81;5052528;28;20066;-73
2021/04/02 10:55:37;;;;;;;;;;;;;;;13.67;49.27;101193.25;5034389;28;20285;-73
2021/04/02 10:58:06;;;;;;;;;;;;;;;12.79;51.41;101187.91;5052086;28;19925;-73
2021/04/02 11:00:32;;;;;;;;;;;;;;;13.63;52.42;101186.34;5052097;28;19983;-73
2021/04/02 11:02:58;;;;;;;;;;;;;;;14.36;50.41;101178.97;5052020;28;19924;-74
2021/04/02 11:05:24;;;;;;;;;;;;;;;14.09;50.43;101185.03;5052055;28;20284;-73
2021/04/02 11:07:50;;;;;;;;;;;;;;;14.15;48.33;101172.69;5052474;28;19928;-74
2021/04/02 11:10:17;;;;;;;;;;;;;;;14.35;48.89;101171.78;5051944;28;20415;-74
2021/04/02 11:12:42;;;;;;;;;;;;;;;14.67;48.38;101168.00;5052000;28;19928;-73
2021/04/02 11:15:12;;;;;;;;;;;;;;;13.92;46.95;101166.56;5052157;28;20426;-72
2021/04/02 11:17:38;;;;;;;;;;;;;;;13.28;50.06;101163.84;5052100;28;20342;-74
2021/04/02 11:20:04;;;;;;;;;;;;;;;13.14;49.48;101159.56;5052491;28;19976;-74
2021/04/02 11:22:30;;;;;;;;;;;;;;;13.09;49.66;101156.34;5051767;28;19929;-74
2021/04/02 11:24:56;;;;;;;;;;;;;;;13.77;50.54;101150.53;5051935;28;19978;-73
2021/04/02 11:27:22;;;;;;;;;;;;;;;14.31;47.54;101142.13;5051522;28;20012;-72
2021/04/02 11:29:48;;;;;;;;;;;;;;;14.90;45.97;101135.81;5032803;28;19986;-73
2021/04/02 11:32:14;;;;;;;;;;;;;;;14.92;45.60;101135.66;5051281;28;19929;-73
2021/04/02 11:34:42;;;;;;;;;;;;;;;14.73;46.54;101139.25;5051502;28;19928;-74
2021/04/02 11:37:08;;;;;;;;;;;;;;;14.18;46.79;101132.34;5031588;28;19929;-72
2021/04/02 11:39:35;;;;;;;;;;;;;;;13.95;47.59;101128.94;5031481;28;19932;-74
2021/04/02 11:42:00;;;;;;;;;;;;;;;13.92;46.80;101131.09;5040680;28;19925;-73
2021/04/02 11:44:27;;;;;;;;;;;;;;;13.71;46.26;101123.81;5051376;28;19925;-73
2021/04/02 11:46:53;;;;;;;;;;;;;;;13.62;47.22;101124.63;5050316;28;19928;-74
2021/04/02 11:49:19;;;;;;;;;;;;;;;12.50;49.71;101125.84;5051843;28;20395;-73
2021/04/02 11:51:45;;;;;;;;;;;;;;;11.72;51.28;101122.19;5050960;28;19928;-73
2021/04/02 11:54:11;;;;;;;;;;;;;;;12.11;52.77;101117.25;5051507;28;20014;-73
2021/04/02 11:56:37;;;;;;;;;;;;;;;11.91;53.01;101107.09;5050552;28;19925;-73
2021/04/02 11:59:03;;;;;;;;;;;;;;;12.29;53.11;101108.56;5030284;28;19925;-73
2021/04/02 12:01:30;;;;;;;;;;;;;;;12.38;51.44;101108.66;5033522;28;19991;-74
2021/04/02 12:03:56;;;;;;;;;;;;;;;12.94;48.80;101098.56;5034978;28;20380;-73
2021/04/02 12:06:22;;;;;;;;;;;;;;;11.99;48.44;101093.78;5033855;28;19925;-72
2021/04/02 12:08:48;;;;;;;;;;;;;;;13.34;50.43;101105.19;5031305;28;20035;-72
2021/04/02 12:11:15;;;;;;;;;;;;;;;13.89;45.90;101092.13;5043760;28;20613;-73
2021/04/02 12:13:41;;;;;;;;;;;;;;;14.04;44.78;101097.22;5033527;28;19972;-71
2021/04/02 12:16:07;;;;;;;;;;;;;;;13.37;43.81;101094.03;5019795;28;20020;-71
2021/04/02 12:18:33;;;;;;;;;;;;;;;14.10;43.23;101087.63;5031335;28;20407;-71
2021/04/02 12:20:59;;;;;;;;;;;;;;;14.83;43.43;101085.47;5031079;28;19940;-72
2021/04/02 12:23:25;;;;;;;;;;;;;;;15.39;42.22;101072.00;5030997;28;19929;-72
2021/04/02 12:25:51;;;;;;;;;;;;;;;14.82;40.97;101083.75;5036307;28;19982;-71
2021/04/02 12:28:17;;;;;;;;;;;;;;;15.32;40.80;101076.34;5041078;28;20015;-72
2021/04/02 12:30:43;;;;;;;;;;;;;;;15.63;38.96;101065.19;5045245;28;20212;-72
2021/04/02 12:33:09;;;;;;;;;;;;;;;15.35;40.83;101076.94;5030916;28;19925;-72
2021/04/02 12:35:36;;;;;;;;;;;;;;;14.78;40.19;101055.00;5030858;28;19932;-72